El Paso, TX (79924)

8:07 PM MDT on September 23, 2014 (GMT -0600)
Bobs Place Northeast | Change Station
CLOSE
Current Station
Personal Weather Station
Location: El Paso, TX
Elevation: 3973 ft
Nearby Weather Stations

Elev 3973 ft 31.91 °N, 106.42 °W | Updated 4 seconds ago

Partly Cloudy
Partly Cloudy
76.9 °F
Feels Like 79 °F
N
3.0
Wind Variable Wind from SSE
Gusts 0.0 mph

Today
High -- | Low -- °F
--% Chance of Precip.
Yesterday
High -- | Low -- °F
Precip. -- in
6:54 AM 7:00 PM
Waning Crescent, 0% visible
Pressure 29.90 in
Visibility 10.0 miles
Clouds Few 13000 ft
Few 20000 ft
Heat Index 79 °F
Dew Point 62 °F
Humidity 59%
Rainfall 0.00 in
Snow Depth Not available.
UV 0 out of 12
Pollen 6.80 out of 12
Air Quality Not available.
Flu Activity Not available.
METAR KELP 240151Z 16007KT 10SM FEW130 FEW200 26/15 A3009 RMK AO2 SLP124 T02560150

More Conditions Fewer Conditions

Pressure 29.90 in
Visibility 10.0 miles
Clouds Few 13000 ft
Few 20000 ft
Heat Index 79 °F
Dew Point 62 °F
Humidity 59%
Rainfall 0.00 in
Snow Depth Not available.
UV 0 out of 12
Pollen 6.80 out of 12
Air Quality Not available.
Flu Activity Not available.
METAR KELP 240151Z 16007KT 10SM FEW130 FEW200 26/15 A3009 RMK AO2 SLP124 T02560150

More Conditions Fewer Conditions

10-Day Weather Forecast

Almanac

Astronomy

Sep. 23, 2014 Rise Set
Actual Time 6:54 AM MDT 7:00 PM MDT
Civil Twilight 6:30 AM MDT 7:25 PM MDT
Nautical Twilight 6:01 AM MDT 7:53 PM MDT
Astronomical Twilight 5:33 AM MDT 8:22 PM MDT
Moon 6:21 AM MDT (9/23) 6:42 PM MDT (9/23)
Length of Visible Light 12h 55m
Length of Day
12h 06m
Tomorrow will be 1m 56s shorter.
Waning Crescent, 0% of the Moon is Illuminated
Today
Waning Crescent
Sep 24
New
Oct 1
First Quarter
Oct 8
Full
Oct 15
Last Quarter

Today's Extremes

State Highs State Lows

Community

WunderPhotos

Upload Photos

1,755,839 photos uploaded!

Nearby

Snow Depth

Station Depth Elevation
No new snow has been reported.

Earthquake Activity

City Distance Mag. Time & Date
No recent earthquake activity has been reported nearby.
Minimum magnitude displayed is 2.5.

Coastal Water Temperatures

Place Temperature
No Stations Reporting

Nearby Weather Stations